createdAt,value
2019-05-23T00:00:00.781Z,101823.52
2019-05-23T00:03:11.828Z,101828.57
2019-05-23T00:06:24.456Z,101826.78
2019-05-23T00:09:34.142Z,101834.42
2019-05-23T00:12:44.191Z,101829.70
2019-05-23T00:15:42.388Z,101828.62
2019-05-23T00:18:36.157Z,101829.78
2019-05-23T00:21:28.147Z,101822.35
2019-05-23T00:24:19.908Z,101818.77
2019-05-23T00:27:13.146Z,101821.27
2019-05-23T00:30:05.578Z,101821.19
2019-05-23T00:32:57.958Z,101819.61
2019-05-23T00:35:51.628Z,101810.45
2019-05-23T00:38:44.207Z,101819.52
2019-05-23T00:41:37.467Z,101819.36
2019-05-23T00:44:30.838Z,101815.74
2019-05-23T00:47:22.509Z,101811.76
2019-05-23T00:50:18.619Z,101808.52
2019-05-23T00:53:10.985Z,101807.25
2019-05-23T00:56:02.267Z,101805.69
2019-05-23T00:58:54.401Z,101807.45
2019-05-23T01:01:46.561Z,101808.98
2019-05-23T01:04:40.619Z,101804.84
2019-05-23T01:07:32.893Z,101802.30
2019-05-23T01:10:27.033Z,101804.48
2019-05-23T01:13:20.003Z,101810.21
2019-05-23T01:16:12.045Z,101807.04
2019-05-23T01:19:04.904Z,101803.02
2019-05-23T01:22:00.659Z,101806.98
2019-05-23T01:24:55.323Z,101806.69
2019-05-23T01:27:46.855Z,101795.79
2019-05-23T01:30:43.385Z,101806.26
2019-05-23T01:33:34.635Z,101796.65
2019-05-23T01:36:26.276Z,101799.31
2019-05-23T01:39:20.586Z,101793.89
2019-05-23T01:42:12.342Z,101789.44
2019-05-23T01:45:05.650Z,101792.31
2019-05-23T01:47:58.258Z,101784.41
2019-05-23T01:50:50.126Z,101786.17
2019-05-23T01:53:42.392Z,101783.09
2019-05-23T01:56:34.092Z,101779.13
2019-05-23T01:59:27.569Z,101775.93
2019-05-23T02:02:21.291Z,101773.56
2019-05-23T02:05:14.133Z,101778.25
2019-05-23T02:08:08.088Z,101778.64
2019-05-23T02:11:00.094Z,101777.37
2019-05-23T02:13:52.044Z,101781.73
2019-05-23T02:16:44.732Z,101770.36
2019-05-23T02:19:37.061Z,101768.14
2019-05-23T02:22:28.575Z,101770.01
2019-05-23T02:25:23.029Z,101764.30
2019-05-23T02:28:16.023Z,101767.41
2019-05-23T02:31:08.065Z,101757.02
2019-05-23T02:34:01.637Z,101758.22
2019-05-23T02:36:54.088Z,101752.98
2019-05-23T02:39:53.805Z,101756.70
2019-05-23T02:42:50.735Z,101754.98
2019-05-23T02:45:48.145Z,101750.62
2019-05-23T02:48:43.546Z,101749.20
2019-05-23T02:51:38.891Z,101752.02
2019-05-23T02:54:31.693Z,101743.89
2019-05-23T02:57:26.841Z,101742.48
2019-05-23T03:00:55.654Z,101744.33
2019-05-23T03:03:49.966Z,101743.58
2019-05-23T03:06:41.953Z,101745.09
2019-05-23T03:09:36.644Z,101746.53
2019-05-23T03:12:30.921Z,101751.58
2019-05-23T03:15:24.965Z,101751.26
2019-05-23T03:18:18.794Z,101747.22
2019-05-23T03:21:11.522Z,101752.23
2019-05-23T03:24:05.045Z,101757.05
2019-05-23T03:27:07.907Z,101756.00
2019-05-23T03:30:02.784Z,101762.59
2019-05-23T03:32:59.389Z,101761.98
2019-05-23T03:35:53.366Z,101757.91
2019-05-23T03:38:45.387Z,101752.30
2019-05-23T03:41:38.776Z,101745.95
2019-05-23T03:44:31.937Z,101751.11
2019-05-23T03:47:25.308Z,101745.77
2019-05-23T03:50:19.050Z,101743.53
2019-05-23T03:53:11.033Z,101747.91
2019-05-23T03:56:04.079Z,101737.79
2019-05-23T03:58:58.582Z,101747.58
2019-05-23T04:01:51.557Z,101748.61
2019-05-23T04:04:43.171Z,101739.53
2019-05-23T04:07:34.753Z,101743.13
2019-05-23T04:10:26.526Z,101741.36
2019-05-23T04:13:18.862Z,101747.50
2019-05-23T04:16:11.091Z,101745.34
2019-05-23T04:19:02.542Z,101745.35
2019-05-23T04:21:54.380Z,101748.23
2019-05-23T04:24:46.283Z,101746.06
2019-05-23T04:27:38.156Z,101745.39
2019-05-23T04:30:29.867Z,101746.67
2019-05-23T04:33:21.629Z,101749.12
2019-05-23T04:36:13.882Z,101749.34
2019-05-23T04:39:06.868Z,101747.23
2019-05-23T04:41:58.825Z,101745.80
2019-05-23T04:44:50.387Z,101749.50
2019-05-23T04:47:42.770Z,101748.67
2019-05-23T04:50:35.473Z,101749.73
2019-05-23T04:53:27.170Z,101749.02
2019-05-23T04:56:18.698Z,101755.04
2019-05-23T04:59:10.202Z,101741.25
2019-05-23T05:02:01.915Z,101746.17
2019-05-23T05:04:53.760Z,101743.38
2019-05-23T05:07:45.693Z,101747.11
2019-05-23T05:10:39.771Z,101748.17
2019-05-23T05:13:32.122Z,101751.74
2019-05-23T05:16:23.494Z,101748.27
2019-05-23T05:19:14.862Z,101747.05
2019-05-23T05:22:06.381Z,101747.67
2019-05-23T05:24:57.747Z,101751.91
2019-05-23T05:27:49.476Z,101751.59
2019-05-23T05:30:42.276Z,101752.19
2019-05-23T05:33:33.857Z,101751.34
2019-05-23T05:36:25.465Z,101756.81
2019-05-23T05:39:18.272Z,101763.39
2019-05-23T05:42:11.735Z,101768.25
2019-05-23T05:45:04.748Z,101764.11
2019-05-23T05:47:57.200Z,101765.86
2019-05-23T05:50:48.844Z,101768.52
2019-05-23T05:53:41.802Z,101767.34
2019-05-23T05:56:33.437Z,101769.41
2019-05-23T05:59:24.816Z,101773.66
2019-05-23T06:02:17.692Z,101776.11
2019-05-23T06:05:11.905Z,101773.14
2019-05-23T06:08:04.821Z,101775.56
2019-05-23T06:10:57.221Z,101774.90
2019-05-23T06:13:48.950Z,101772.98
2019-05-23T06:16:41.238Z,101764.44
2019-05-23T06:19:32.654Z,101768.63
2019-05-23T06:22:26.167Z,101770.40
2019-05-23T06:25:18.091Z,101767.88
2019-05-23T06:28:11.742Z,101764.93
2019-05-23T06:31:03.873Z,101769.00
2019-05-23T06:33:55.566Z,101761.75
2019-05-23T06:36:47.593Z,101756.11
2019-05-23T06:39:40.091Z,101758.84
2019-05-23T06:42:31.688Z,101758.75
2019-05-23T06:45:24.201Z,101756.26
2019-05-23T06:48:17.302Z,101748.83
2019-05-23T06:51:09.494Z,101747.64
2019-05-23T06:54:01.273Z,101748.37
2019-05-23T06:56:52.763Z,101739.13
2019-05-23T06:59:43.987Z,101739.92
2019-05-23T07:02:35.567Z,101739.61
2019-05-23T07:05:34.582Z,101734.41
2019-05-23T07:08:29.793Z,101732.60
2019-05-23T07:11:23.503Z,101730.44
2019-05-23T07:14:15.563Z,101727.64
2019-05-23T07:17:07.384Z,101730.50
2019-05-23T07:19:58.907Z,101723.64
2019-05-23T07:22:50.621Z,101726.69
2019-05-23T07:25:42.558Z,101722.95
2019-05-23T07:28:34.217Z,101724.14
2019-05-23T07:31:25.800Z,101719.34
2019-05-23T07:34:17.231Z,101717.05
2019-05-23T07:37:08.680Z,101718.14
2019-05-23T07:40:00.348Z,101715.28
2019-05-23T07:42:52.619Z,101714.78
2019-05-23T07:45:49.579Z,101715.08
2019-05-23T07:48:41.487Z,101708.35
2019-05-23T07:51:33.117Z,101713.71
2019-05-23T07:54:33.243Z,101709.09
2019-05-23T07:57:25.719Z,101709.93
2019-05-23T08:00:22.420Z,101712.16
2019-05-23T08:03:16.082Z,101713.82
2019-05-23T08:06:07.464Z,101708.64
2019-05-23T08:08:59.557Z,101706.36
2019-05-23T08:11:51.199Z,101709.27
2019-05-23T08:14:42.454Z,101710.31
2019-05-23T08:17:33.981Z,101709.37
2019-05-23T08:20:26.353Z,101714.03
2019-05-23T08:23:17.914Z,101711.52
2019-05-23T08:26:09.561Z,101716.67
2019-05-23T08:29:24.669Z,101714.64
2019-05-23T08:31:55.311Z,101711.22
2019-05-23T08:34:46.681Z,101714.56
2019-05-23T08:37:39.967Z,101717.95
2019-05-23T08:40:33.291Z,101713.41
2019-05-23T08:43:24.875Z,101715.30
2019-05-23T08:46:17.815Z,101708.89
2019-05-23T08:49:10.241Z,101705.14
2019-05-23T08:52:02.032Z,101704.94
2019-05-23T08:54:59.565Z,101696.98
2019-05-23T08:57:52.329Z,101697.48
2019-05-23T09:00:46.100Z,101696.62
2019-05-23T09:03:38.138Z,101699.20
2019-05-23T09:06:30.818Z,101693.94
2019-05-23T09:09:29.712Z,101689.17
2019-05-23T09:12:15.750Z,101689.76
2019-05-23T09:15:09.977Z,101687.63
2019-05-23T09:18:02.398Z,101683.48
2019-05-23T09:20:54.354Z,101687.30
2019-05-23T09:23:45.726Z,101691.74
2019-05-23T09:26:37.564Z,101687.21
2019-05-23T09:29:29.400Z,101685.92
2019-05-23T09:32:20.870Z,101690.97
2019-05-23T09:35:21.110Z,101696.36
2019-05-23T09:38:07.519Z,101690.30
2019-05-23T09:40:59.085Z,101686.59
2019-05-23T09:43:50.481Z,101687.31
2019-05-23T09:46:42.073Z,101687.90
2019-05-23T09:49:33.637Z,101679.38
2019-05-23T09:52:26.092Z,101680.55
2019-05-23T09:55:18.646Z,101683.78
2019-05-23T09:58:09.913Z,101677.97
2019-05-23T10:01:01.595Z,101677.07
2019-05-23T10:03:53.502Z,101674.16
2019-05-23T10:06:46.317Z,101670.05
2019-05-23T10:09:38.291Z,101669.43
2019-05-23T10:12:29.847Z,101663.64
2019-05-23T10:15:37.310Z,101665.42
2019-05-23T10:18:28.541Z,101659.41
2019-05-23T10:21:19.906Z,101662.06
2019-05-23T10:24:13.279Z,101663.44
2019-05-23T10:27:06.166Z,101663.52
2019-05-23T10:29:57.725Z,101661.63
2019-05-23T10:32:49.403Z,101659.77
2019-05-23T10:35:56.884Z,101657.47
2019-05-23T10:38:33.553Z,101659.71
2019-05-23T10:41:25.100Z,101656.69
2019-05-23T10:44:16.835Z,101656.97
2019-05-23T10:47:08.348Z,101652.80
2019-05-23T10:50:00.194Z,101649.59
2019-05-23T10:52:51.783Z,101651.62
2019-05-23T10:55:43.945Z,101643.47
2019-05-23T10:58:36.000Z,101637.13
2019-05-23T11:01:28.899Z,101640.64
2019-05-23T11:04:20.394Z,101637.39
2019-05-23T11:07:13.225Z,101634.17
2019-05-23T11:10:05.593Z,101643.70
2019-05-23T11:12:58.001Z,101636.38
2019-05-23T11:15:49.861Z,101628.15
2019-05-23T11:18:41.358Z,101621.42
2019-05-23T11:21:32.974Z,101618.67
2019-05-23T11:24:24.714Z,101614.61
2019-05-23T11:27:16.573Z,101616.23
2019-05-23T11:30:08.960Z,101616.09
2019-05-23T11:33:00.582Z,101615.41
2019-05-23T11:35:52.833Z,101616.97
2019-05-23T11:38:44.340Z,101615.17
2019-05-23T11:41:36.253Z,101609.84
2019-05-23T11:44:27.614Z,101610.55
2019-05-23T11:47:19.880Z,101603.11
2019-05-23T11:50:12.088Z,101598.88
2019-05-23T11:53:03.594Z,101603.72
2019-05-23T11:55:55.018Z,101600.02
2019-05-23T11:58:46.884Z,101591.36
2019-05-23T12:02:03.319Z,101591.13
2019-05-23T12:04:57.934Z,101589.95
2019-05-23T12:07:50.698Z,101587.56
2019-05-23T12:10:42.329Z,101587.09
2019-05-23T12:13:33.839Z,101590.84
2019-05-23T12:16:25.768Z,101589.06
2019-05-23T12:19:17.598Z,101581.35
2019-05-23T12:22:09.464Z,101584.31
2019-05-23T12:25:20.220Z,101579.27
2019-05-23T12:27:55.301Z,101585.45
2019-05-23T12:30:46.937Z,101573.44
2019-05-23T12:33:38.501Z,101572.77
2019-05-23T12:36:30.158Z,101571.15
2019-05-23T12:39:21.761Z,101564.55
2019-05-23T12:42:13.248Z,101561.39
2019-05-23T12:45:06.325Z,101564.12
2019-05-23T12:48:02.377Z,101560.41
2019-05-23T12:50:54.899Z,101559.70
2019-05-23T12:53:46.421Z,101562.59
2019-05-23T12:56:38.429Z,101559.80
2019-05-23T12:59:30.292Z,101558.22
2019-05-23T13:02:25.600Z,101546.74
2019-05-23T13:05:17.615Z,101547.53
2019-05-23T13:08:10.140Z,101545.89
2019-05-23T13:11:01.716Z,101539.41
2019-05-23T13:13:53.091Z,101539.58
2019-05-23T13:16:44.401Z,101542.16
2019-05-23T13:19:35.729Z,101551.69
2019-05-23T13:22:27.506Z,101547.03
2019-05-23T13:25:19.194Z,101534.80
2019-05-23T13:28:10.637Z,101533.08
2019-05-23T13:31:02.244Z,101530.37
2019-05-23T13:33:53.868Z,101535.64
2019-05-23T13:36:46.751Z,101529.61
2019-05-23T13:39:38.434Z,101524.67
2019-05-23T13:42:29.893Z,101531.05
2019-05-23T13:45:21.487Z,101536.28
2019-05-23T13:48:12.968Z,101530.66
2019-05-23T13:51:04.550Z,101523.08
2019-05-23T13:53:56.429Z,101513.36
2019-05-23T13:56:49.120Z,101507.72
2019-05-23T13:59:40.570Z,101507.24
2019-05-23T14:02:32.274Z,101508.56
2019-05-23T14:05:25.087Z,101502.55
2019-05-23T14:08:19.141Z,101501.36
2019-05-23T14:11:10.178Z,101499.56
2019-05-23T14:14:02.956Z,101491.27
2019-05-23T14:17:21.224Z,101486.00
2019-05-23T14:20:14.111Z,101491.00
2019-05-23T14:23:15.832Z,101483.83
2019-05-23T14:26:08.439Z,101484.61
2019-05-23T14:28:59.957Z,101487.98
2019-05-23T14:32:00.121Z,101490.61
2019-05-23T14:34:51.519Z,101492.34
2019-05-23T14:37:46.133Z,101488.23
2019-05-23T14:40:37.448Z,101488.23
2019-05-23T14:43:29.738Z,101487.92
2019-05-23T14:46:22.696Z,101482.89
2019-05-23T14:49:24.287Z,101479.91
2019-05-23T14:52:20.773Z,101477.40
2019-05-23T14:55:13.057Z,101470.67
2019-05-23T14:58:05.693Z,101475.33
2019-05-23T15:00:57.932Z,101473.36
2019-05-23T15:03:50.147Z,101469.50
2019-05-23T15:06:41.811Z,101469.90
2019-05-23T15:09:34.053Z,101465.71
2019-05-23T15:12:25.855Z,101467.45
2019-05-23T15:15:18.314Z,101459.88
2019-05-23T15:18:09.864Z,101463.63
2019-05-23T15:21:01.150Z,101466.48
2019-05-23T15:23:53.161Z,101455.09
2019-05-23T15:26:45.013Z,101460.73
2019-05-23T15:29:36.644Z,101454.40
2019-05-23T15:32:28.248Z,101455.32
2019-05-23T15:35:20.026Z,101453.87
2019-05-23T15:38:11.719Z,101458.22
2019-05-23T15:41:03.091Z,101457.33
2019-05-23T15:43:54.481Z,101451.19
2019-05-23T15:46:46.105Z,101450.87
2019-05-23T15:49:39.067Z,101446.27
2019-05-23T15:52:57.980Z,101445.09
2019-05-23T15:56:27.563Z,101441.62
2019-05-23T15:59:29.069Z,101442.24
2019-05-23T16:02:23.270Z,101444.09
2019-05-23T16:05:16.514Z,101438.06
2019-05-23T16:08:09.523Z,101438.67
2019-05-23T16:11:01.632Z,101432.55
2019-05-23T16:13:54.047Z,101434.64
2019-05-23T16:16:45.367Z,101433.91
2019-05-23T16:19:37.430Z,101432.00
2019-05-23T16:22:29.045Z,101432.27
2019-05-23T16:25:20.378Z,101425.73
2019-05-23T16:28:11.999Z,101427.98
2019-05-23T16:31:03.558Z,101417.00
2019-05-23T16:33:54.895Z,101417.17
2019-05-23T16:36:46.318Z,101419.18
2019-05-23T16:39:47.428Z,101410.67
2019-05-23T16:42:30.749Z,101413.52
2019-05-23T16:45:22.505Z,101417.69
2019-05-23T16:48:13.918Z,101421.12
2019-05-23T16:51:05.894Z,101419.08
2019-05-23T16:53:57.522Z,101417.19
2019-05-23T16:57:10.360Z,101416.20
2019-05-23T17:00:19.388Z,101413.33
2019-05-23T17:03:21.168Z,101411.50
2019-05-23T17:06:38.939Z,101412.02
2019-05-23T17:09:40.513Z,101410.64
2019-05-23T17:12:57.079Z,101414.48
2019-05-23T17:16:13.573Z,101409.94
2019-05-23T17:19:19.917Z,101409.56
2019-05-23T17:22:29.216Z,101410.02
2019-05-23T17:25:34.658Z,101412.61
2019-05-23T17:28:34.696Z,101414.72
2019-05-23T17:31:32.070Z,101415.11
2019-05-23T17:34:23.281Z,101416.28
2019-05-23T17:37:15.866Z,101415.09
2019-05-23T17:40:23.721Z,101414.45
2019-05-23T17:43:01.777Z,101415.20
2019-05-23T17:45:53.508Z,101419.02
2019-05-23T17:48:44.812Z,101424.78
2019-05-23T17:51:36.437Z,101422.10
2019-05-23T17:54:29.058Z,101426.78
2019-05-23T17:57:21.519Z,101427.70
2019-05-23T18:00:16.212Z,101425.70
2019-05-23T18:03:08.457Z,101425.78
2019-05-23T18:06:00.086Z,101429.20
2019-05-23T18:08:52.817Z,101424.37
2019-05-23T18:11:44.712Z,101420.79
2019-05-23T18:14:37.646Z,101420.68
2019-05-23T18:17:29.387Z,101416.87
2019-05-23T18:20:21.321Z,101417.90
2019-05-23T18:23:13.021Z,101423.36
2019-05-23T18:26:05.760Z,101429.44
2019-05-23T18:28:58.081Z,101429.45
2019-05-23T18:31:51.384Z,101433.52
2019-05-23T18:34:43.341Z,101430.24
2019-05-23T18:37:34.734Z,101429.16
2019-05-23T18:40:26.343Z,101430.73
2019-05-23T18:43:18.609Z,101428.42
2019-05-23T18:46:16.030Z,101429.97
2019-05-23T18:49:09.275Z,101427.13
2019-05-23T18:52:01.747Z,101431.39
2019-05-23T18:54:53.015Z,101433.00
2019-05-23T18:57:45.409Z,101430.16
2019-05-23T19:01:27.152Z,101430.86
2019-05-23T19:04:19.350Z,101429.55
2019-05-23T19:07:12.228Z,101437.90
2019-05-23T19:10:04.194Z,101431.94
2019-05-23T19:12:56.275Z,101433.16
2019-05-23T19:15:48.103Z,101433.67
2019-05-23T19:18:41.005Z,101437.59
2019-05-23T19:21:33.256Z,101444.83
2019-05-23T19:24:25.948Z,101440.05
2019-05-23T19:27:17.504Z,101440.12
2019-05-23T19:30:11.136Z,101438.80
2019-05-23T19:33:02.928Z,101438.61
2019-05-23T19:35:54.731Z,101444.73
2019-05-23T19:38:46.414Z,101443.02
2019-05-23T19:41:38.401Z,101444.35
2019-05-23T19:44:30.109Z,101436.93
2019-05-23T19:47:21.613Z,101437.56
2019-05-23T19:50:14.133Z,101446.27
2019-05-23T19:53:06.695Z,101448.97
2019-05-23T19:55:58.230Z,101453.75
2019-05-23T19:58:50.668Z,101456.56
2019-05-23T20:02:04.250Z,101456.19
2019-05-23T20:05:00.790Z,101462.66
2019-05-23T20:07:52.394Z,101458.39
2019-05-23T20:10:44.595Z,101460.81
2019-05-23T20:13:36.556Z,101463.05
2019-05-23T20:16:28.569Z,101461.63
2019-05-23T20:19:20.906Z,101466.94
2019-05-23T20:22:13.410Z,101464.64
2019-05-23T20:25:05.357Z,101458.23
2019-05-23T20:27:57.055Z,101458.66
2019-05-23T20:30:54.387Z,101461.27
2019-05-23T20:33:45.983Z,101459.00
2019-05-23T20:36:38.219Z,101459.97
2019-05-23T20:39:30.625Z,101455.09
2019-05-23T20:42:22.017Z,101454.46
2019-05-23T20:45:13.540Z,101457.00
2019-05-23T20:48:05.534Z,101452.24
2019-05-23T20:50:56.806Z,101457.33
2019-05-23T20:53:49.277Z,101461.38
2019-05-23T20:56:40.842Z,101469.00
2019-05-23T20:59:32.322Z,101465.48
2019-05-23T21:02:23.989Z,101467.59
2019-05-23T21:05:15.486Z,101468.88
2019-05-23T21:08:07.487Z,101473.13
2019-05-23T21:10:58.761Z,101466.03
2019-05-23T21:13:50.698Z,101470.34
2019-05-23T21:16:42.287Z,101468.16
2019-05-23T21:19:33.691Z,101466.94
2019-05-23T21:22:25.092Z,101464.98
2019-05-23T21:25:16.426Z,101464.22
2019-05-23T21:28:08.040Z,101460.94
2019-05-23T21:30:59.522Z,101460.97
2019-05-23T21:33:50.924Z,101464.22
2019-05-23T21:36:42.626Z,101462.38
2019-05-23T21:39:34.404Z,101461.41
2019-05-23T21:42:27.073Z,101459.31
2019-05-23T21:45:18.723Z,101459.80
2019-05-23T21:48:10.686Z,101457.86
2019-05-23T21:51:02.186Z,101459.79
2019-05-23T21:53:53.856Z,101456.44
2019-05-23T21:56:45.348Z,101454.64
2019-05-23T21:59:37.159Z,101454.88
2019-05-23T22:02:33.247Z,101450.48
2019-05-23T22:05:24.564Z,101449.14
2019-05-23T22:08:16.088Z,101445.89
2019-05-23T22:11:07.650Z,101446.00
2019-05-23T22:13:59.534Z,101449.00
2019-05-23T22:16:51.368Z,101450.34
2019-05-23T22:19:42.690Z,101448.65
2019-05-23T22:22:34.906Z,101447.47
2019-05-23T22:25:34.821Z,101446.27
2019-05-23T22:28:26.274Z,101445.61
2019-05-23T22:31:18.358Z,101440.50
2019-05-23T22:34:19.834Z,101442.31
2019-05-23T22:37:21.250Z,101440.40
2019-05-23T22:40:14.546Z,101446.78
2019-05-23T22:43:20.133Z,101445.12
2019-05-23T22:45:59.363Z,101443.31
2019-05-23T22:48:50.665Z,101445.71
2019-05-23T22:51:42.519Z,101445.17
2019-05-23T22:54:34.031Z,101443.78
2019-05-23T22:57:25.598Z,101437.30
2019-05-23T23:00:21.732Z,101443.16
2019-05-23T23:03:13.089Z,101438.78
2019-05-23T23:06:04.677Z,101436.50
2019-05-23T23:08:55.970Z,101433.81
2019-05-23T23:11:47.795Z,101433.32
2019-05-23T23:14:39.385Z,101433.61
2019-05-23T23:17:31.241Z,101437.10
2019-05-23T23:20:24.525Z,101442.41
2019-05-23T23:23:15.933Z,101445.06
2019-05-23T23:26:08.275Z,101442.02
2019-05-23T23:29:00.822Z,101445.16
2019-05-23T23:31:52.749Z,101440.80
2019-05-23T23:34:44.649Z,101437.19
2019-05-23T23:37:36.215Z,101440.97
2019-05-23T23:40:27.523Z,101436.94
2019-05-23T23:43:19.534Z,101441.41
2019-05-23T23:46:29.522Z,101436.56
2019-05-23T23:49:38.782Z,101440.20
2019-05-23T23:52:47.943Z,101440.25
2019-05-23T23:55:57.386Z,101440.78
2019-05-23T23:58:48.180Z,101437.08
